Time;durP1;ratioP1;P1;durP2;ratioP2;P2;SDS_P1;SDS_P2;PMS_P1;PMS_P2;Temp;Humidity;BMP_temperature;BMP_pressure;BME280_temperature;BME280_humidity;BME280_pressure;Samples;Min_cycle;Max_cycle;Signal;HPM_P1;HPM_P2
2024/01/12 12:01:32;;;;;;;0.30;0.30;;;6.70;99.90;;;;;;5067741;28;20387;-50
2024/01/12 12:03:57;;;;;;;5.18;1.48;;;6.50;99.90;;;;;;5055945;28;20036;-44
2024/01/12 12:06:23;;;;;;;1.58;0.73;;;6.50;99.90;;;;;;5047628;28;20021;-47
2024/01/12 12:08:52;;;;;;;4.82;1.15;;;6.50;99.90;;;;;;5047799;28;20461;-47
2024/01/12 12:11:18;;;;;;;5.35;1.50;;;6.60;99.90;;;;;;5047139;28;20025;-45
2024/01/12 12:13:44;;;;;;;9.45;1.30;;;6.70;99.90;;;;;;5047819;28;20032;-44
2024/01/12 12:16:10;;;;;;;2.15;1.08;;;6.60;99.90;;;;;;5047533;28;20360;-46
2024/01/12 12:18:35;;;;;;;4.72;1.33;;;6.60;99.90;;;;;;5047446;28;20481;-45
2024/01/12 12:21:01;;;;;;;3.90;0.95;;;6.60;99.90;;;;;;5047485;28;20041;-50
2024/01/12 12:23:28;;;;;;;6.20;1.20;;;6.50;99.90;;;;;;5047425;28;20025;-47
2024/01/12 12:25:54;;;;;;;8.55;1.50;;;6.60;99.90;;;;;;5047219;28;20021;-47
2024/01/12 12:28:21;;;;;;;4.82;1.00;;;6.60;99.90;;;;;;5047713;28;20037;-49
2024/01/12 12:30:47;;;;;;;4.85;1.20;;;6.60;99.90;;;;;;5047191;28;20059;-46
2024/01/12 12:33:13;;;;;;;4.80;1.27;;;6.50;99.90;;;;;;5047346;28;20025;-47
2024/01/12 12:35:39;;;;;;;4.63;1.10;;;6.50;99.90;;;;;;5047326;28;20036;-46
2024/01/12 12:38:05;;;;;;;3.55;0.98;;;6.50;99.90;;;;;;5047208;28;20022;-47
2024/01/12 12:40:31;;;;;;;5.63;1.08;;;6.50;99.90;;;;;;5047074;28;20048;-46
2024/01/12 12:43:00;;;;;;;2.83;1.20;;;6.60;99.90;;;;;;5047407;28;20041;-45
2024/01/12 12:45:27;;;;;;;2.88;0.80;;;6.60;99.90;;;;;;5047342;28;20040;-51
2024/01/12 12:47:53;;;;;;;4.35;1.02;;;6.60;99.90;;;;;;5047063;28;20110;-47
2024/01/12 12:50:19;;;;;;;5.47;1.48;;;6.60;99.90;;;;;;5047108;28;20079;-47
2024/01/12 12:52:45;;;;;;;3.60;1.13;;;6.50;99.90;;;;;;5052246;28;20021;-46
2024/01/12 12:55:11;;;;;;;2.33;0.93;;;6.60;99.90;;;;;;5059696;28;20047;-47
2024/01/12 12:57:38;;;;;;;2.92;0.82;;;6.60;99.90;;;;;;5042146;28;20029;-49
2024/01/12 13:00:05;;;;;;;3.10;0.80;;;6.50;99.90;;;;;;5043411;28;20065;-44
2024/01/12 13:02:31;;;;;;;3.08;0.77;;;6.60;99.90;;;;;;5046669;28;20121;-55
2024/01/12 13:04:57;;;;;;;5.68;1.20;;;6.60;99.90;;;;;;5046628;28;20127;-50
2024/01/12 13:07:23;;;;;;;3.83;1.02;;;6.70;99.90;;;;;;5046256;28;20040;-46
2024/01/12 13:09:51;;;;;;;3.17;0.88;;;6.70;99.90;;;;;;5046822;28;20120;-44
2024/01/12 13:12:16;;;;;;;2.85;1.05;;;6.80;99.90;;;;;;5036491;28;20435;-52
2024/01/12 13:14:42;;;;;;;2.17;0.90;;;6.80;99.90;;;;;;5031689;28;20108;-47
2024/01/12 13:17:08;;;;;;;2.67;0.80;;;6.80;99.90;;;;;;5033369;28;20125;-45
2024/01/12 13:19:34;;;;;;;4.30;1.00;;;6.80;99.90;;;;;;5031573;28;20108;-48
2024/01/12 13:22:00;;;;;;;2.13;0.60;;;6.80;99.90;;;;;;5031617;28;20774;-46
2024/01/12 13:24:28;;;;;;;0.60;0.60;;;6.90;99.90;;;;;;5052608;28;20535;-50
2024/01/12 13:26:54;;;;;;;2.75;1.02;;;6.90;99.90;;;;;;5053128;28;20110;-45
2024/01/12 13:29:20;;;;;;;2.92;0.90;;;6.90;99.90;;;;;;5052953;28;20028;-50
2024/01/12 13:31:45;;;;;;;5.32;0.80;;;6.80;99.90;;;;;;5040046;28;20033;-50
2024/01/12 13:34:13;;;;;;;1.42;0.90;;;6.80;99.90;;;;;;5033051;28;20029;-53
2024/01/12 13:36:40;;;;;;;2.08;0.70;;;6.80;99.90;;;;;;5031309;28;20112;-46
2024/01/12 13:39:09;;;;;;;3.22;0.90;;;6.80;99.90;;;;;;5032457;28;20077;-49
2024/01/12 13:41:35;;;;;;;1.58;1.00;;;6.80;99.90;;;;;;5033160;28;20033;-51
2024/01/12 13:44:02;;;;;;;5.32;1.30;;;6.80;99.90;;;;;;5032695;28;20029;-51
2024/01/12 13:46:29;;;;;;;2.78;1.10;;;6.70;99.90;;;;;;5033072;28;20105;-46
2024/01/12 13:48:54;;;;;;;2.80;0.82;;;6.70;99.90;;;;;;5032730;28;20021;-51
2024/01/12 13:51:20;;;;;;;5.55;1.42;;;6.70;99.90;;;;;;5032670;28;20041;-54
2024/01/12 13:53:47;;;;;;;4.90;1.20;;;6.60;99.90;;;;;;5032940;28;20029;-51
2024/01/12 13:56:13;;;;;;;3.65;1.10;;;6.70;99.90;;;;;;5050295;28;20025;-50
2024/01/12 13:58:39;;;;;;;4.22;1.40;;;6.60;99.90;;;;;;5035411;28;20025;-52
2024/01/12 14:01:04;;;;;;;5.13;1.35;;;6.60;99.90;;;;;;5035812;28;20045;-48
2024/01/12 14:03:32;;;;;;;3.80;1.33;;;6.60;99.90;;;;;;5032358;28;20461;-46
2024/01/12 14:05:59;;;;;;;3.15;0.95;;;6.50;99.90;;;;;;5032445;28;20083;-52
2024/01/12 14:08:27;;;;;;;3.67;1.10;;;6.50;99.90;;;;;;5040056;28;20032;-50
2024/01/12 14:10:53;;;;;;;2.05;0.90;;;6.40;99.90;;;;;;5049324;28;20029;-47
2024/01/12 14:13:20;;;;;;;2.75;1.20;;;6.40;99.90;;;;;;5030777;28;20480;-45
2024/01/12 14:15:46;;;;;;;1.65;0.90;;;6.40;99.90;;;;;;5032231;28;20028;-46
2024/01/12 14:18:11;;;;;;;2.42;1.35;;;6.40;99.90;;;;;;5030794;28;20018;-53
2024/01/12 14:20:38;;;;;;;3.90;1.30;;;6.40;99.90;;;;;;5032328;28;20041;-51
2024/01/12 14:23:04;;;;;;;1.20;0.85;;;6.40;99.90;;;;;;5031132;28;20042;-51
2024/01/12 14:25:30;;;;;;;2.22;1.20;;;6.40;99.90;;;;;;5032273;28;20116;-54
2024/01/12 14:27:57;;;;;;;2.15;1.17;;;6.40;99.90;;;;;;5029812;28;20421;-50
2024/01/12 14:30:23;;;;;;;1.67;0.80;;;6.40;99.90;;;;;;5031301;28;20127;-50
2024/01/12 14:32:49;;;;;;;3.25;1.50;;;6.40;99.90;;;;;;5030441;28;20079;-50
2024/01/12 14:35:15;;;;;;;4.10;1.23;;;6.40;99.90;;;;;;5030028;28;20029;-47
2024/01/12 14:37:40;;;;;;;2.72;1.30;;;6.40;99.90;;;;;;5031298;28;20440;-44
2024/01/12 14:40:07;;;;;;;2.42;1.30;;;6.30;99.90;;;;;;5031646;28;20388;-48
2024/01/12 14:42:33;;;;;;;2.13;1.00;;;6.40;99.90;;;;;;5031657;28;20033;-45
2024/01/12 14:45:01;;;;;;;3.78;1.15;;;6.40;99.90;;;;;;5031647;28;20104;-47
2024/01/12 14:47:27;;;;;;;7.00;1.40;;;6.30;99.90;;;;;;5031301;28;20057;-49
2024/01/12 14:49:53;;;;;;;3.92;1.52;;;6.30;99.90;;;;;;5031992;28;20055;-47
2024/01/12 14:52:18;;;;;;;4.43;1.30;;;6.30;99.90;;;;;;5031692;28;20060;-46
2024/01/12 14:54:46;;;;;;;6.90;1.65;;;6.20;99.90;;;;;;5037058;28;20017;-49
2024/01/12 14:57:12;;;;;;;2.00;1.20;;;6.20;99.90;;;;;;5051454;28;20025;-49
2024/01/12 14:59:38;;;;;;;2.92;1.27;;;6.20;99.90;;;;;;5050957;28;20451;-47
2024/01/12 15:02:04;;;;;;;3.70;1.30;;;6.20;99.90;;;;;;5051154;28;20106;-50
2024/01/12 15:04:30;;;;;;;4.22;1.63;;;6.20;99.90;;;;;;5050833;28;20479;-47
2024/01/12 15:06:56;;;;;;;3.80;1.58;;;6.10;99.90;;;;;;5050847;28;20387;-49
2024/01/12 15:09:23;;;;;;;4.07;1.52;;;6.10;99.90;;;;;;5044756;28;20021;-45
2024/01/12 15:11:50;;;;;;;4.35;1.98;;;6.10;99.90;;;;;;5050687;28;20021;-45
2024/01/12 15:14:16;;;;;;;8.68;2.25;;;6.00;99.90;;;;;;5050298;28;20032;-46
2024/01/12 15:16:43;;;;;;;2.88;1.42;;;6.00;99.90;;;;;;5050497;28;20071;-48
2024/01/12 15:19:10;;;;;;;5.25;1.70;;;6.00;99.90;;;;;;5050607;28;20096;-50
2024/01/12 15:21:35;;;;;;;5.25;2.00;;;6.00;99.90;;;;;;5050642;28;20110;-45
2024/01/12 15:24:01;;;;;;;6.25;1.65;;;6.00;99.90;;;;;;5050814;28;20143;-45
2024/01/12 15:26:27;;;;;;;4.30;2.25;;;6.00;99.90;;;;;;5050456;28;20032;-44
2024/01/12 15:28:53;;;;;;;7.18;1.63;;;6.00;99.90;;;;;;5050581;28;20017;-44
2024/01/12 15:31:18;;;;;;;7.68;1.92;;;6.00;99.90;;;;;;5041224;28;20021;-44
2024/01/12 15:33:44;;;;;;;3.20;1.42;;;6.00;99.90;;;;;;5030504;28;20030;-51
2024/01/12 15:36:10;;;;;;;7.32;2.22;;;6.00;99.90;;;;;;5030317;28;20102;-54
2024/01/12 15:38:36;;;;;;;5.47;2.50;;;6.00;99.90;;;;;;5030508;28;20030;-45
2024/01/12 15:41:02;;;;;;;10.48;3.80;;;6.00;99.90;;;;;;5029701;28;20433;-47
2024/01/12 15:43:28;;;;;;;6.90;2.50;;;6.00;99.90;;;;;;5030360;28;20056;-51
2024/01/12 15:45:57;;;;;;;4.80;2.40;;;5.90;99.90;;;;;;5029944;28;20357;-48
2024/01/12 15:48:23;;;;;;;3.47;1.95;;;5.90;99.90;;;;;;5030267;28;20345;-48
2024/01/12 15:50:49;;;;;;;2.38;1.48;;;5.90;99.90;;;;;;5030314;28;20029;-49
2024/01/12 15:53:15;;;;;;;2.90;1.50;;;5.90;99.90;;;;;;5030416;28;20089;-50
2024/01/12 15:55:41;;;;;;;4.38;2.10;;;5.80;99.90;;;;;;5030165;28;20029;-52
2024/01/12 15:58:06;;;;;;;4.65;2.13;;;5.70;99.90;;;;;;5029858;28;20018;-51
2024/01/12 16:00:32;;;;;;;4.45;2.30;;;5.80;99.90;;;;;;5029853;28;20500;-49
2024/01/12 16:02:58;;;;;;;4.90;1.55;;;5.70;99.90;;;;;;5029802;28;20021;-49
2024/01/12 16:05:23;;;;;;;7.30;2.53;;;5.70;99.90;;;;;;5029966;28;20029;-46
2024/01/12 16:07:49;;;;;;;6.20;2.40;;;5.70;99.90;;;;;;5029489;28;20476;-45
2024/01/12 16:10:15;;;;;;;7.05;1.60;;;5.70;99.90;;;;;;5030208;28;20081;-54
2024/01/12 16:12:40;;;;;;;10.85;2.05;;;5.70;99.90;;;;;;5029539;28;20056;-53
2024/01/12 16:15:07;;;;;;;4.85;1.70;;;5.70;99.90;;;;;;5029435;28;20029;-48
2024/01/12 16:17:35;;;;;;;4.55;1.90;;;5.70;99.90;;;;;;5048286;28;20055;-45
2024/01/12 16:20:01;;;;;;;3.33;1.42;;;5.70;99.90;;;;;;5049817;28;20037;-48
2024/01/12 16:22:27;;;;;;;5.13;1.80;;;5.70;99.90;;;;;;5049642;28;20462;-50
2024/01/12 16:24:52;;;;;;;3.83;2.05;;;5.70;99.90;;;;;;5049521;28;20363;-50
2024/01/12 16:27:18;;;;;;;3.47;1.88;;;5.70;99.90;;;;;;5049499;28;20029;-49
2024/01/12 16:29:44;;;;;;;4.30;1.98;;;5.60;99.90;;;;;;5049511;28;20104;-51
2024/01/12 16:32:10;;;;;;;6.03;2.03;;;5.70;99.90;;;;;;5033269;28;20126;-54
2024/01/12 16:34:36;;;;;;;6.32;1.92;;;5.70;99.90;;;;;;5029609;28;20108;-51
2024/01/12 16:37:01;;;;;;;5.13;1.85;;;5.70;99.90;;;;;;5029420;28;20117;-50
2024/01/12 16:39:28;;;;;;;3.50;1.88;;;5.70;99.90;;;;;;5029468;28;20396;-48
2024/01/12 16:41:56;;;;;;;4.80;1.98;;;5.70;99.90;;;;;;5029521;28;20033;-51
2024/01/12 16:44:22;;;;;;;5.10;2.28;;;5.70;99.90;;;;;;5029509;28;20480;-54
2024/01/12 16:46:48;;;;;;;7.00;2.50;;;5.70;99.90;;;;;;5030337;28;20026;-53
2024/01/12 16:49:14;;;;;;;4.38;2.03;;;5.70;99.90;;;;;;5033076;28;20341;-49
2024/01/12 16:51:39;;;;;;;3.75;1.90;;;5.60;99.90;;;;;;5032854;28;20029;-47
2024/01/12 16:54:05;;;;;;;2.85;1.92;;;5.60;99.90;;;;;;5033058;28;20036;-46
2024/01/12 16:56:40;;;;;;;3.80;2.20;;;5.60;99.90;;;;;;5033064;28;20104;-46
2024/01/12 16:59:06;;;;;;;3.53;2.15;;;5.60;99.90;;;;;;5033154;28;20468;-47
2024/01/12 17:01:32;;;;;;;6.95;2.80;;;5.60;99.90;;;;;;5032736;28;20033;-45
2024/01/12 17:03:59;;;;;;;6.85;2.80;;;5.60;99.90;;;;;;5033118;28;20107;-45
2024/01/12 17:06:27;;;;;;;7.47;3.15;;;5.60;99.90;;;;;;5032662;28;20219;-49
2024/01/12 17:08:53;;;;;;;5.20;2.75;;;5.60;99.90;;;;;;5032739;28;20465;-46
2024/01/12 17:11:19;;;;;;;9.00;2.47;;;5.60;99.90;;;;;;5032357;28;20064;-47
2024/01/12 17:13:45;;;;;;;3.85;2.38;;;5.60;99.90;;;;;;5021320;28;20026;-46
2024/01/12 17:16:10;;;;;;;5.57;3.15;;;5.50;99.90;;;;;;5032869;28;20886;-48
2024/01/12 17:18:36;;;;;;;6.20;2.88;;;5.50;99.90;;;;;;5032923;28;20029;-50
2024/01/12 17:21:01;;;;;;;5.07;3.17;;;5.60;99.90;;;;;;5032643;28;20542;-50
2024/01/12 17:23:27;;;;;;;6.35;2.85;;;5.60;99.90;;;;;;5028861;28;20390;-46
2024/01/12 17:25:53;;;;;;;5.00;2.40;;;5.60;99.90;;;;;;5012533;28;20091;-46
2024/01/12 17:28:18;;;;;;;7.93;3.35;;;5.60;99.90;;;;;;5027067;28;20014;-47
2024/01/12 17:30:44;;;;;;;6.65;2.80;;;5.60;99.90;;;;;;5030603;28;20061;-47
2024/01/12 17:33:10;;;;;;;6.65;3.67;;;5.50;99.90;;;;;;5032509;28;20473;-50
2024/01/12 17:35:35;;;;;;;6.13;3.08;;;5.50;99.90;;;;;;5032226;28;20025;-49
2024/01/12 17:38:01;;;;;;;7.03;3.67;;;5.50;99.90;;;;;;5032612;28;20030;-52
2024/01/12 17:40:27;;;;;;;6.07;3.05;;;5.50;99.90;;;;;;5032374;28;20382;-45
2024/01/12 17:42:52;;;;;;;6.10;3.10;;;5.50;99.90;;;;;;5032467;28;20103;-48
2024/01/12 17:45:18;;;;;;;7.93;3.25;;;5.50;99.90;;;;;;5032420;28;20749;-51
2024/01/12 17:47:44;;;;;;;5.65;3.30;;;5.50;99.90;;;;;;5032193;28;20030;-53
2024/01/12 17:50:09;;;;;;;6.30;3.25;;;5.50;99.90;;;;;;5032185;28;20029;-51
2024/01/12 17:52:35;;;;;;;7.55;3.92;;;5.50;99.90;;;;;;5031446;28;20172;-51
2024/01/12 17:55:01;;;;;;;4.60;2.70;;;5.50;99.90;;;;;;5031618;28;20425;-50
2024/01/12 17:57:27;;;;;;;6.38;3.40;;;5.50;99.90;;;;;;5031249;28;20064;-47
2024/01/12 17:59:52;;;;;;;14.45;3.17;;;5.50;99.90;;;;;;5030419;28;20065;-46
2024/01/12 18:02:18;;;;;;;8.27;3.78;;;5.40;99.90;;;;;;5031525;28;20029;-46
2024/01/12 18:04:48;;;;;;;7.65;3.13;;;5.50;99.90;;;;;;5030890;28;20021;-51
2024/01/12 18:07:16;;;;;;;7.10;4.63;;;5.50;99.90;;;;;;5031847;28;20026;-46
2024/01/12 18:09:43;;;;;;;6.70;4.07;;;5.40;99.90;;;;;;5031607;28;20076;-43
2024/01/12 18:12:09;;;;;;;12.48;5.32;;;5.40;99.90;;;;;;5030320;28;20080;-51
2024/01/12 18:14:36;;;;;;;9.93;3.78;;;5.40;99.90;;;;;;5031466;28;20104;-50
2024/01/12 18:17:06;;;;;;;5.70;3.13;;;5.40;99.90;;;;;;5031083;28;20030;-55
2024/01/12 18:19:33;;;;;;;8.68;3.97;;;5.40;99.90;;;;;;5029486;28;20076;-52
2024/01/12 18:21:59;;;;;;;8.70;5.15;;;5.30;99.90;;;;;;5031251;28;20116;-52
2024/01/12 18:24:25;;;;;;;6.72;3.65;;;5.30;99.90;;;;;;5031365;28;20036;-52
2024/01/12 18:26:51;;;;;;;5.07;3.50;;;5.40;99.90;;;;;;5031428;28;20030;-49
2024/01/12 18:29:16;;;;;;;7.20;4.40;;;5.40;99.90;;;;;;5030415;28;20026;-52
2024/01/12 18:31:42;;;;;;;6.13;3.42;;;5.40;99.90;;;;;;5031571;28;20044;-49
2024/01/12 18:34:08;;;;;;;6.90;4.00;;;5.30;99.90;;;;;;5031563;28;20049;-49
2024/01/12 18:36:34;;;;;;;6.82;3.92;;;5.30;99.90;;;;;;5031210;28;20122;-46
2024/01/12 18:39:00;;;;;;;8.45;4.20;;;5.30;99.90;;;;;;5031247;28;20057;-46
2024/01/12 18:41:25;;;;;;;5.85;3.88;;;5.30;99.90;;;;;;5031364;28;20437;-51
2024/01/12 18:43:52;;;;;;;6.90;3.67;;;5.30;99.90;;;;;;5030926;28;20487;-48
2024/01/12 18:46:17;;;;;;;7.15;3.67;;;5.30;99.90;;;;;;5031496;28;20075;-50
2024/01/12 18:48:43;;;;;;;9.38;3.88;;;5.30;99.90;;;;;;5031257;28;20029;-46
2024/01/12 18:51:09;;;;;;;5.95;3.72;;;5.30;99.90;;;;;;5030951;28;20025;-51
2024/01/12 18:53:34;;;;;;;6.63;3.72;;;5.30;99.90;;;;;;5030426;28;20028;-46
2024/01/12 18:56:00;;;;;;;6.68;3.97;;;5.30;99.90;;;;;;5030804;28;20029;-49
2024/01/12 18:58:26;;;;;;;5.65;3.70;;;5.30;99.90;;;;;;5029461;28;20053;-46
2024/01/12 19:00:51;;;;;;;6.85;3.80;;;5.30;99.90;;;;;;5030369;28;20419;-46
2024/01/12 19:03:17;;;;;;;5.47;3.67;;;5.30;99.90;;;;;;5030873;28;20068;-45
2024/01/12 19:05:45;;;;;;;7.82;3.33;;;5.30;99.90;;;;;;5030613;28;20499;-46
2024/01/12 19:08:11;;;;;;;8.18;4.20;;;5.30;99.90;;;;;;5030474;28;20722;-44
2024/01/12 19:10:37;;;;;;;12.38;4.40;;;5.30;99.90;;;;;;5029820;28;20118;-44
2024/01/12 19:13:03;;;;;;;10.10;4.25;;;5.20;99.90;;;;;;5029460;28;20431;-45
2024/01/12 19:15:29;;;;;;;5.90;3.38;;;5.20;99.90;;;;;;5029917;28;20045;-46
2024/01/12 19:17:54;;;;;;;8.55;3.97;;;5.20;99.90;;;;;;5028752;28;20064;-49
2024/01/12 19:20:20;;;;;;;5.53;3.50;;;5.20;99.90;;;;;;5030464;28;20045;-46
2024/01/12 19:22:46;;;;;;;4.53;3.50;;;5.20;99.90;;;;;;5030822;28;20468;-52
2024/01/12 19:25:12;;;;;;;5.70;3.65;;;5.20;99.90;;;;;;5028444;28;20112;-46
2024/01/12 19:27:37;;;;;;;10.40;4.57;;;5.20;99.90;;;;;;5030424;28;20041;-44
2024/01/12 19:30:10;;;;;;;7.70;4.53;;;5.20;99.90;;;;;;5028126;28;20037;-47
2024/01/12 19:32:38;;;;;;;7.40;3.42;;;5.20;99.90;;;;;;5029186;28;20108;-46
2024/01/12 19:35:06;;;;;;;6.40;3.50;;;5.20;99.90;;;;;;5028718;28;20089;-45
2024/01/12 19:37:32;;;;;;;7.63;4.40;;;5.20;99.90;;;;;;5027742;28;20480;-44
2024/01/12 19:39:58;;;;;;;7.05;4.72;;;5.20;99.90;;;;;;5028048;28;20040;-45
2024/01/12 19:42:24;;;;;;;6.65;4.13;;;5.20;99.90;;;;;;5029912;28;20029;-52
2024/01/12 19:44:50;;;;;;;7.38;3.83;;;5.20;99.90;;;;;;5031084;28;20473;-48
2024/01/12 19:47:16;;;;;;;7.50;4.03;;;5.20;99.90;;;;;;5030611;28;20040;-45
2024/01/12 19:49:42;;;;;;;12.27;4.40;;;5.20;99.90;;;;;;5029270;28;20022;-45
2024/01/12 19:52:08;;;;;;;8.75;4.47;;;5.20;99.90;;;;;;5029840;28;20030;-53
2024/01/12 19:54:35;;;;;;;9.27;4.38;;;5.20;99.90;;;;;;5029348;28;20507;-44
2024/01/12 19:57:01;;;;;;;10.40;5.53;;;5.20;99.90;;;;;;5029583;28;20022;-45
2024/01/12 19:59:26;;;;;;;10.10;4.85;;;5.20;99.90;;;;;;5026445;28;20119;-45
2024/01/12 20:01:56;;;;;;;6.28;4.30;;;5.20;99.90;;;;;;5031035;28;20044;-45
2024/01/12 20:04:22;;;;;;;;;;;5.20;99.90;;;;;;5032782;28;20033;-45
2024/01/12 20:06:47;;;;;;;5.68;3.78;;;5.20;99.90;;;;;;5031207;28;19909;-45
2024/01/12 20:09:13;;;;;;;7.00;4.05;;;5.20;99.90;;;;;;5031701;28;20038;-45
2024/01/12 20:11:39;;;;;;;6.03;3.70;;;5.20;99.90;;;;;;5030392;28;20017;-44
2024/01/12 20:14:04;;;;;;;10.25;4.32;;;5.20;99.90;;;;;;5032784;28;20395;-46
2024/01/12 20:16:30;;;;;;;7.80;4.25;;;5.10;99.90;;;;;;5028995;28;20079;-48
2024/01/12 20:18:56;;;;;;;7.88;3.85;;;5.10;99.90;;;;;;5027621;28;20112;-46
2024/01/12 20:21:24;;;;;;;6.22;3.95;;;5.20;99.90;;;;;;5029264;28;20041;-51
2024/01/12 20:23:52;;;;;;;7.10;4.57;;;5.20;99.90;;;;;;5032945;28;20090;-48
2024/01/12 20:26:21;;;;;;;8.38;4.50;;;5.20;99.90;;;;;;5031330;28;20029;-47
2024/01/12 20:28:48;;;;;;;8.05;4.57;;;5.20;99.90;;;;;;5032805;28;20432;-45
2024/01/12 20:31:17;;;;;;;5.97;4.05;;;5.20;99.90;;;;;;5032581;28;20029;-51
2024/01/12 20:33:43;;;;;;;8.20;4.63;;;5.10;99.90;;;;;;5032873;28;20030;-48
2024/01/12 20:36:09;;;;;;;7.90;4.22;;;5.10;99.90;;;;;;5042038;28;20052;-47
2024/01/12 20:38:35;;;;;;;7.18;4.00;;;5.10;99.90;;;;;;5052463;28;20502;-50
2024/01/12 20:41:01;;;;;;;9.32;4.57;;;5.10;99.90;;;;;;5045227;28;20033;-46
2024/01/12 20:43:27;;;;;;;5.82;3.53;;;5.10;99.90;;;;;;5015489;28;20086;-50
2024/01/12 20:45:53;;;;;;;8.40;4.18;;;5.10;99.90;;;;;;5032861;28;20112;-53
2024/01/12 20:48:20;;;;;;;7.68;4.22;;;5.10;99.90;;;;;;5033143;28;20021;-47
2024/01/12 20:50:46;;;;;;;5.40;3.35;;;5.10;99.90;;;;;;5033034;28;20460;-49
2024/01/12 20:53:13;;;;;;;13.25;3.22;;;5.10;99.90;;;;;;5033029;28;20025;-51
2024/01/12 20:55:39;;;;;;;5.93;3.75;;;5.10;99.90;;;;;;5032831;28;20079;-47
2024/01/12 20:58:05;;;;;;;6.95;4.03;;;5.00;99.90;;;;;;5033113;28;20422;-45
2024/01/12 21:00:31;;;;;;;7.38;3.70;;;5.00;99.90;;;;;;5032585;28;20053;-44
2024/01/12 21:02:56;;;;;;;4.85;3.33;;;5.00;99.90;;;;;;5032935;28;20021;-47
2024/01/12 21:05:22;;;;;;;7.40;3.63;;;5.00;99.90;;;;;;5032179;28;20068;-44
2024/01/12 21:07:48;;;;;;;7.03;4.05;;;5.00;99.90;;;;;;5032717;28;20022;-50
2024/01/12 21:10:13;;;;;;;9.27;3.53;;;5.00;99.90;;;;;;5032294;28;20068;-55
2024/01/12 21:12:39;;;;;;;6.65;3.85;;;5.00;99.90;;;;;;5032479;28;20021;-47
2024/01/12 21:15:05;;;;;;;7.25;4.28;;;5.00;99.90;;;;;;5032510;28;20009;-51
2024/01/12 21:17:31;;;;;;;6.55;3.75;;;5.00;99.90;;;;;;5032365;28;20018;-52
2024/01/12 21:19:56;;;;;;;5.45;3.78;;;5.00;99.90;;;;;;5032337;28;20041;-48
2024/01/12 21:22:22;;;;;;;6.38;3.95;;;5.00;99.90;;;;;;5032509;28;20029;-46
2024/01/12 21:24:48;;;;;;;7.28;4.20;;;4.90;99.90;;;;;;5035756;28;20029;-53
2024/01/12 21:27:14;;;;;;;6.63;4.18;;;5.00;99.90;;;;;;5042381;28;20021;-51
2024/01/12 21:29:40;;;;;;;7.70;3.67;;;5.00;99.90;;;;;;5032270;28;20032;-51
2024/01/12 21:32:06;;;;;;;7.72;4.07;;;4.90;99.90;;;;;;5031796;28;20140;-52
2024/01/12 21:34:33;;;;;;;12.68;5.95;;;5.00;99.90;;;;;;5032472;28;20107;-46
2024/01/12 21:36:59;;;;;;;12.93;6.43;;;5.00;99.90;;;;;;5032274;28;20028;-49
2024/01/12 21:39:25;;;;;;;6.97;4.25;;;4.90;99.90;;;;;;5031501;28;20025;-45
2024/01/12 21:41:50;;;;;;;6.25;4.22;;;4.90;99.90;;;;;;5031773;28;20384;-43
2024/01/12 21:44:16;;;;;;;9.00;4.22;;;4.90;99.90;;;;;;5031324;28;20105;-48
2024/01/12 21:46:42;;;;;;;8.90;4.30;;;4.90;99.90;;;;;;5031838;28;20029;-46
2024/01/12 21:49:09;;;;;;;6.82;3.88;;;4.90;99.90;;;;;;5032076;28;20021;-48
2024/01/12 21:51:35;;;;;;;6.70;3.90;;;4.90;99.90;;;;;;5034626;28;20100;-56
2024/01/12 21:54:01;;;;;;;9.85;4.45;;;4.90;99.90;;;;;;5029532;28;20025;-55
2024/01/12 21:56:26;;;;;;;6.78;3.42;;;4.90;99.90;;;;;;5031449;28;20024;-45
2024/01/12 21:58:52;;;;;;;6.78;4.15;;;4.90;99.90;;;;;;5022719;28;20048;-49
2024/01/12 22:01:18;;;;;;;7.38;3.88;;;4.90;99.90;;;;;;5030182;28;20092;-46
2024/01/12 22:03:44;;;;;;;8.40;4.10;;;4.90;99.90;;;;;;5031941;28;20452;-49
2024/01/12 22:06:09;;;;;;;5.53;3.45;;;4.90;99.90;;;;;;5031111;28;20085;-46
2024/01/12 22:08:35;;;;;;;6.03;3.83;;;4.90;99.90;;;;;;5030763;28;20435;-46
2024/01/12 22:11:01;;;;;;;7.05;4.30;;;4.90;99.90;;;;;;5030940;28;20435;-53
2024/01/12 22:13:26;;;;;;;6.15;3.95;;;4.90;99.90;;;;;;5030743;28;20030;-48
2024/01/12 22:15:52;;;;;;;7.57;4.40;;;4.90;99.90;;;;;;5024900;28;20124;-51
2024/01/12 22:18:18;;;;;;;6.80;3.92;;;4.90;99.90;;;;;;5024774;28;20444;-52
2024/01/12 22:20:44;;;;;;;6.85;4.43;;;4.90;99.90;;;;;;5028251;28;20053;-49
2024/01/12 22:23:09;;;;;;;5.70;3.97;;;4.80;99.90;;;;;;5028168;28;20462;-51
2024/01/12 22:25:35;;;;;;;7.18;4.50;;;4.80;99.90;;;;;;5018755;28;20029;-46
2024/01/12 22:28:01;;;;;;;6.22;4.10;;;4.80;99.90;;;;;;5018243;28;20037;-55
2024/01/12 22:30:26;;;;;;;6.35;4.35;;;4.80;99.90;;;;;;5014793;28;20036;-45
2024/01/12 22:32:52;;;;;;;8.98;4.72;;;4.80;99.90;;;;;;5015022;28;20048;-51
2024/01/12 22:35:17;;;;;;;8.90;4.65;;;4.80;99.90;;;;;;5015375;28;20108;-49
2024/01/12 22:37:45;;;;;;;7.03;4.50;;;4.80;99.90;;;;;;5012577;28;20361;-45
2024/01/12 22:40:11;;;;;;;5.95;3.90;;;4.80;99.90;;;;;;5017768;28;20033;-45
2024/01/12 22:42:37;;;;;;;10.27;4.00;;;4.80;99.90;;;;;;5016656;28;20034;-48
2024/01/12 22:45:02;;;;;;;5.72;3.72;;;4.80;99.90;;;;;;5010917;28;20029;-48
2024/01/12 22:47:28;;;;;;;6.90;3.65;;;4.80;99.90;;;;;;5016784;28;20421;-50
2024/01/12 22:49:54;;;;;;;7.18;4.20;;;4.80;99.90;;;;;;5012392;28;20392;-52
2024/01/12 22:52:19;;;;;;;9.32;4.53;;;4.80;99.90;;;;;;5017810;28;20029;-57
2024/01/12 22:54:45;;;;;;;8.98;4.63;;;4.80;99.90;;;;;;5018724;28;20026;-48
2024/01/12 22:57:11;;;;;;;6.82;4.30;;;4.80;99.90;;;;;;5010859;28;20022;-45
2024/01/12 22:59:36;;;;;;;8.32;4.20;;;4.80;99.90;;;;;;5016006;28;20048;-51
2024/01/12 23:02:02;;;;;;;8.32;3.83;;;4.80;99.90;;;;;;5011501;28;20057;-45
2024/01/12 23:04:28;;;;;;;7.43;4.25;;;4.80;99.90;;;;;;5021019;28;20492;-46
2024/01/12 23:06:53;;;;;;;6.97;4.13;;;4.80;99.90;;;;;;5022130;28;20029;-46
2024/01/12 23:09:19;;;;;;;6.50;4.13;;;4.80;99.90;;;;;;5026221;28;20032;-50
2024/01/12 23:11:46;;;;;;;5.93;3.90;;;4.70;99.90;;;;;;5016486;28;20025;-44
2024/01/12 23:14:12;;;;;;;7.25;4.18;;;4.70;99.90;;;;;;5010658;28;20452;-49
2024/01/12 23:16:38;;;;;;;6.47;4.05;;;4.70;99.90;;;;;;5015721;28;20116;-48
2024/01/12 23:19:03;;;;;;;7.65;4.18;;;4.70;99.90;;;;;;5011312;28;20112;-51
2024/01/12 23:21:29;;;;;;;6.53;4.25;;;4.60;99.90;;;;;;5012122;28;20036;-44
2024/01/12 23:23:54;;;;;;;8.73;4.70;;;4.60;99.90;;;;;;5011874;28;20441;-54
2024/01/12 23:26:21;;;;;;;6.82;4.40;;;4.60;99.90;;;;;;5010026;28;20443;-44
2024/01/12 23:28:47;;;;;;;7.10;4.10;;;4.60;99.90;;;;;;5014872;28;20053;-49
2024/01/12 23:31:13;;;;;;;6.43;3.97;;;4.60;99.90;;;;;;5012083;28;20049;-44
2024/01/12 23:33:38;;;;;;;7.95;4.40;;;4.50;99.90;;;;;;5011741;28;20056;-48
2024/01/12 23:36:04;;;;;;;8.18;4.28;;;4.50;99.90;;;;;;5027649;28;20040;-50
2024/01/12 23:38:30;;;;;;;9.52;4.60;;;4.40;99.90;;;;;;5027556;28;20025;-52
2024/01/12 23:40:55;;;;;;;8.90;4.63;;;4.30;99.90;;;;;;5026344;28;20090;-46
2024/01/12 23:43:21;;;;;;;6.00;4.00;;;4.30;99.90;;;;;;5027838;28;20431;-50
2024/01/12 23:45:47;;;;;;;10.32;4.80;;;4.30;99.90;;;;;;5026535;28;20112;-51
2024/01/12 23:48:12;;;;;;;7.70;4.78;;;4.40;99.90;;;;;;5027135;28;20027;-44
2024/01/12 23:50:38;;;;;;;6.05;4.15;;;4.40;99.90;;;;;;5027492;28;20025;-57
2024/01/12 23:53:04;;;;;;;6.22;4.70;;;4.40;99.90;;;;;;5027506;28;20099;-48
2024/01/12 23:55:29;;;;;;;6.43;4.13;;;4.40;99.90;;;;;;5026919;28;20061;-52
2024/01/12 23:57:55;;;;;;;6.47;4.50;;;4.40;99.90;;;;;;5027531;28;20115;-44
